sensor_id;sensor_type;location;lat;lon;timestamp;pressure;altitude;pressure_sealevel;temperature;humidity
50852;BME280;43953;45.508;-122.806;2023-07-22T00:00:18;100870.22;;;25.98;43.22
50852;BME280;43953;45.508;-122.806;2023-07-22T00:00:50;100864.38;;;26.00;43.13
50852;BME280;43953;45.508;-122.806;2023-07-22T00:01:22;100864.38;;;26.00;43.28
50852;BME280;43953;45.508;-122.806;2023-07-22T00:01:54;100871.22;;;26.02;43.05
50852;BME280;43953;45.508;-122.806;2023-07-22T00:02:25;100864.88;;;26.02;43.50
50852;BME280;43953;45.508;-122.806;2023-07-22T00:02:57;100870.41;;;26.02;43.21
50852;BME280;43953;45.508;-122.806;2023-07-22T00:03:29;100857.41;;;26.02;43.24
50852;BME280;43953;45.508;-122.806;2023-07-22T00:04:00;100868.97;;;26.04;43.33
50852;BME280;43953;45.508;-122.806;2023-07-22T00:04:32;100868.97;;;26.04;43.27
50852;BME280;43953;45.508;-122.806;2023-07-22T00:05:04;100864.25;;;26.05;43.06
50852;BME280;43953;45.508;-122.806;2023-07-22T00:05:36;100865.91;;;26.06;43.10
50852;BME280;43953;45.508;-122.806;2023-07-22T00:06:09;100860.41;;;26.06;43.15
50852;BME280;43953;45.508;-122.806;2023-07-22T00:06:41;100866.41;;;26.08;43.10
50852;BME280;43953;45.508;-122.806;2023-07-22T00:07:13;100862.84;;;26.07;43.48
50852;BME280;43953;45.508;-122.806;2023-07-22T00:07:45;100862.53;;;26.09;43.05
50852;BME280;43953;45.508;-122.806;2023-07-22T00:08:16;100861.41;;;26.10;43.50
50852;BME280;43953;45.508;-122.806;2023-07-22T00:08:49;100867.72;;;26.10;42.89
50852;BME280;43953;45.508;-122.806;2023-07-22T00:09:21;100859.44;;;26.10;43.43
50852;BME280;43953;45.508;-122.806;2023-07-22T00:09:53;100857.50;;;26.11;43.71
50852;BME280;43953;45.508;-122.806;2023-07-22T00:10:24;100868.53;;;26.11;43.28
50852;BME280;43953;45.508;-122.806;2023-07-22T00:10:56;100866.31;;;26.13;43.59
50852;BME280;43953;45.508;-122.806;2023-07-22T00:11:28;100863.53;;;26.13;43.10
50852;BME280;43953;45.508;-122.806;2023-07-22T00:12:00;100867.91;;;26.14;42.95
50852;BME280;43953;45.508;-122.806;2023-07-22T00:12:31;100867.09;;;26.14;43.61
50852;BME280;43953;45.508;-122.806;2023-07-22T00:13:03;100857.69;;;26.15;43.36
50852;BME280;43953;45.508;-122.806;2023-07-22T00:13:35;100865.16;;;26.14;42.98
50852;BME280;43953;45.508;-122.806;2023-07-22T00:14:06;100859.34;;;26.16;43.25
50852;BME280;43953;45.508;-122.806;2023-07-22T00:14:41;100856.88;;;26.14;43.34
50852;BME280;43953;45.508;-122.806;2023-07-22T00:15:13;100858.53;;;26.15;43.04
50852;BME280;43953;45.508;-122.806;2023-07-22T00:15:45;100858.53;;;26.15;43.17
50852;BME280;43953;45.508;-122.806;2023-07-22T00:16:17;100863.72;;;26.17;43.25
50852;BME280;43953;45.508;-122.806;2023-07-22T00:16:48;100856.25;;;26.17;43.12
50852;BME280;43953;45.508;-122.806;2023-07-22T00:17:20;100859.88;;;26.18;43.22
50852;BME280;43953;45.508;-122.806;2023-07-22T00:17:55;100862.28;;;26.19;43.28
50852;BME280;43953;45.508;-122.806;2023-07-22T00:18:27;100856.78;;;26.19;43.16
50852;BME280;43953;45.508;-122.806;2023-07-22T00:18:59;100859.53;;;26.19;43.19
50852;BME280;43953;45.508;-122.806;2023-07-22T00:19:31;100858.41;;;26.20;42.92
50852;BME280;43953;45.508;-122.806;2023-07-22T00:20:03;100862.00;;;26.21;42.96
50852;BME280;43953;45.508;-122.806;2023-07-22T00:20:35;100856.16;;;26.22;42.91
50852;BME280;43953;45.508;-122.806;2023-07-22T00:21:07;100858.41;;;26.20;43.20
50852;BME280;43953;45.508;-122.806;2023-07-22T00:21:40;100856.97;;;26.23;43.11
50852;BME280;43953;45.508;-122.806;2023-07-22T00:22:11;100856.66;;;26.24;43.08
50852;BME280;43953;45.508;-122.806;2023-07-22T00:22:43;100856.66;;;26.24;43.13
50852;BME280;43953;45.508;-122.806;2023-07-22T00:23:15;100857.47;;;26.25;42.74
50852;BME280;43953;45.508;-122.806;2023-07-22T00:23:47;100858.28;;;26.25;42.92
50852;BME280;43953;45.508;-122.806;2023-07-22T00:24:19;100860.75;;;26.27;43.50
50852;BME280;43953;45.508;-122.806;2023-07-22T00:24:52;100855.22;;;26.27;43.08
50852;BME280;43953;45.508;-122.806;2023-07-22T00:25:24;100854.91;;;26.28;43.33
50852;BME280;43953;45.508;-122.806;2023-07-22T00:25:56;100854.91;;;26.28;43.28
50852;BME280;43953;45.508;-122.806;2023-07-22T00:26:27;100854.91;;;26.28;43.46
50852;BME280;43953;45.508;-122.806;2023-07-22T00:26:59;100845.50;;;26.29;43.07
50852;BME280;43953;45.508;-122.806;2023-07-22T00:27:31;100842.72;;;26.29;42.97
50852;BME280;43953;45.508;-122.806;2023-07-22T00:28:02;100851.00;;;26.29;42.99
50852;BME280;43953;45.508;-122.806;2023-07-22T00:28:35;100847.16;;;26.30;43.01
50852;BME280;43953;45.508;-122.806;2023-07-22T00:29:07;100851.53;;;26.31;42.99
50852;BME280;43953;45.508;-122.806;2023-07-22T00:29:39;100853.19;;;26.32;42.87
50852;BME280;43953;45.508;-122.806;2023-07-22T00:30:11;100849.28;;;26.33;42.95
50852;BME280;43953;45.508;-122.806;2023-07-22T00:30:42;100843.75;;;26.33;42.84
50852;BME280;43953;45.508;-122.806;2023-07-22T00:31:14;100841.50;;;26.36;43.09
50852;BME280;43953;45.508;-122.806;2023-07-22T00:31:48;100838.75;;;26.36;42.93
50852;BME280;43953;45.508;-122.806;2023-07-22T00:32:20;100844.28;;;26.36;43.25
50852;BME280;43953;45.508;-122.806;2023-07-22T00:32:52;100844.75;;;26.38;43.08
50852;BME280;43953;45.508;-122.806;2023-07-22T00:33:23;100835.66;;;26.37;42.74
50852;BME280;43953;45.508;-122.806;2023-07-22T00:33:55;100842.81;;;26.38;43.24
50852;BME280;43953;45.508;-122.806;2023-07-22T00:34:27;100843.66;;;26.39;43.27
50852;BME280;43953;45.508;-122.806;2023-07-22T00:34:59;100848.03;;;26.40;42.83
50852;BME280;43953;45.508;-122.806;2023-07-22T00:35:31;100835.84;;;26.41;42.80
50852;BME280;43953;45.508;-122.806;2023-07-22T00:36:03;100839.41;;;26.41;42.94
50852;BME280;43953;45.508;-122.806;2023-07-22T00:36:35;100834.75;;;26.42;43.05
50852;BME280;43953;45.508;-122.806;2023-07-22T00:37:06;100843.03;;;26.42;42.97
50852;BME280;43953;45.508;-122.806;2023-07-22T00:37:39;100842.69;;;26.43;42.92
50852;BME280;43953;45.508;-122.806;2023-07-22T00:38:10;100838.78;;;26.44;43.21
50852;BME280;43953;45.508;-122.806;2023-07-22T00:38:42;100839.63;;;26.45;43.18
50852;BME280;43953;45.508;-122.806;2023-07-22T00:39:14;100834.91;;;26.45;43.32
50852;BME280;43953;45.508;-122.806;2023-07-22T00:39:46;100836.53;;;26.46;43.32
50852;BME280;43953;45.508;-122.806;2023-07-22T00:40:18;100841.75;;;26.48;43.50
50852;BME280;43953;45.508;-122.806;2023-07-22T00:40:50;100838.19;;;26.47;42.82
50852;BME280;43953;45.508;-122.806;2023-07-22T00:41:22;100835.09;;;26.49;43.01
50852;BME280;43953;45.508;-122.806;2023-07-22T00:41:53;100840.63;;;26.49;43.14
50852;BME280;43953;45.508;-122.806;2023-07-22T00:42:25;100845.03;;;26.50;43.09
50852;BME280;43953;45.508;-122.806;2023-07-22T00:42:57;100841.16;;;26.51;42.88
50852;BME280;43953;45.508;-122.806;2023-07-22T00:43:28;100837.59;;;26.50;43.38
50852;BME280;43953;45.508;-122.806;2023-07-22T00:44:00;100837.28;;;26.52;43.42
50852;BME280;43953;45.508;-122.806;2023-07-22T00:44:32;100833.69;;;26.51;43.10
50852;BME280;43953;45.508;-122.806;2023-07-22T00:45:04;100841.66;;;26.53;42.93
50852;BME280;43953;45.508;-122.806;2023-07-22T00:45:36;100838.88;;;26.53;42.68
50852;BME280;43953;45.508;-122.806;2023-07-22T00:46:08;100838.59;;;26.54;42.67
50852;BME280;43953;45.508;-122.806;2023-07-22T00:46:39;100833.88;;;26.55;42.86
50852;BME280;43953;45.508;-122.806;2023-07-22T00:47:11;100830.81;;;26.57;43.21
50852;BME280;43953;45.508;-122.806;2023-07-22T00:47:44;100835.50;;;26.56;42.76
50852;BME280;43953;45.508;-122.806;2023-07-22T00:48:16;100829.69;;;26.58;43.18
50852;BME280;43953;45.508;-122.806;2023-07-22T00:48:50;100834.91;;;26.59;42.90
50852;BME280;43953;45.508;-122.806;2023-07-22T00:49:22;100828.53;;;26.59;42.82
50852;BME280;43953;45.508;-122.806;2023-07-22T00:49:54;100831.00;;;26.60;42.87
50852;BME280;43953;45.508;-122.806;2023-07-22T00:50:27;100838.16;;;26.61;42.74
50852;BME280;43953;45.508;-122.806;2023-07-22T00:50:59;100831.50;;;26.62;42.77
50852;BME280;43953;45.508;-122.806;2023-07-22T00:51:31;100829.56;;;26.63;42.86
50852;BME280;43953;45.508;-122.806;2023-07-22T00:52:02;100842.22;;;26.64;43.13
50852;BME280;43953;45.508;-122.806;2023-07-22T00:52:35;100837.50;;;26.64;43.26
50852;BME280;43953;45.508;-122.806;2023-07-22T00:53:06;100839.16;;;26.65;43.02
50852;BME280;43953;45.508;-122.806;2023-07-22T00:53:38;100839.16;;;26.65;42.69
50852;BME280;43953;45.508;-122.806;2023-07-22T00:54:10;100839.97;;;26.66;42.79
50852;BME280;43953;45.508;-122.806;2023-07-22T00:54:41;100838.84;;;26.67;43.28
50852;BME280;43953;45.508;-122.806;2023-07-22T00:55:13;100836.88;;;26.67;42.93
50852;BME280;43953;45.508;-122.806;2023-07-22T00:55:45;100839.66;;;26.67;42.91
50852;BME280;43953;45.508;-122.806;2023-07-22T00:56:17;100838.53;;;26.68;42.81
50852;BME280;43953;45.508;-122.806;2023-07-22T00:56:49;100835.78;;;26.68;43.09
50852;BME280;43953;45.508;-122.806;2023-07-22T00:57:22;100838.22;;;26.70;42.92
50852;BME280;43953;45.508;-122.806;2023-07-22T00:57:55;100834.31;;;26.71;43.09
50852;BME280;43953;45.508;-122.806;2023-07-22T00:58:27;100828.47;;;26.72;42.89
50852;BME280;43953;45.508;-122.806;2023-07-22T00:58:59;100837.91;;;26.71;43.30
50852;BME280;43953;45.508;-122.806;2023-07-22T00:59:31;100831.53;;;26.71;42.98
50852;BME280;43953;45.508;-122.806;2023-07-22T01:00:03;100835.63;;;26.73;43.10
50852;BME280;43953;45.508;-122.806;2023-07-22T01:00:37;100830.09;;;26.73;43.09
50852;BME280;43953;45.508;-122.806;2023-07-22T01:01:08;100835.63;;;26.73;43.00
50852;BME280;43953;45.508;-122.806;2023-07-22T01:01:40;100830.94;;;26.74;42.94
50852;BME280;43953;45.508;-122.806;2023-07-22T01:02:12;100831.75;;;26.74;43.48
50852;BME280;43953;45.508;-122.806;2023-07-22T01:02:44;100835.84;;;26.77;43.27
50852;BME280;43953;45.508;-122.806;2023-07-22T01:03:16;100835.00;;;26.76;43.19
50852;BME280;43953;45.508;-122.806;2023-07-22T01:03:50;100835.00;;;26.76;43.19
50852;BME280;43953;45.508;-122.806;2023-07-22T01:04:23;100832.75;;;26.78;43.00
50852;BME280;43953;45.508;-122.806;2023-07-22T01:04:55;100830.78;;;26.79;42.85
50852;BME280;43953;45.508;-122.806;2023-07-22T01:05:27;100827.72;;;26.81;42.99
50852;BME280;43953;45.508;-122.806;2023-07-22T01:05:59;100832.13;;;26.82;43.45
50852;BME280;43953;45.508;-122.806;2023-07-22T01:06:32;100832.13;;;26.82;43.20
50852;BME280;43953;45.508;-122.806;2023-07-22T01:07:05;100828.22;;;26.83;43.16
50852;BME280;43953;45.508;-122.806;2023-07-22T01:07:38;100820.75;;;26.83;43.10
50852;BME280;43953;45.508;-122.806;2023-07-22T01:08:10;100821.56;;;26.84;43.12
50852;BME280;43953;45.508;-122.806;2023-07-22T01:08:41;100829.84;;;26.84;43.08
50852;BME280;43953;45.508;-122.806;2023-07-22T01:09:13;100824.81;;;26.86;43.23
50852;BME280;43953;45.508;-122.806;2023-07-22T01:09:45;100822.06;;;26.86;42.94
50852;BME280;43953;45.508;-122.806;2023-07-22T01:10:17;100826.47;;;26.87;42.85
50852;BME280;43953;45.508;-122.806;2023-07-22T01:10:48;100828.09;;;26.88;42.81
50852;BME280;43953;45.508;-122.806;2023-07-22T01:11:20;100820.94;;;26.87;43.39
50852;BME280;43953;45.508;-122.806;2023-07-22T01:11:52;100819.78;;;26.88;43.45
50852;BME280;43953;45.508;-122.806;2023-07-22T01:12:23;100819.78;;;26.88;43.24
50852;BME280;43953;45.508;-122.806;2023-07-22T01:12:56;100816.72;;;26.89;42.98
50852;BME280;43953;45.508;-122.806;2023-07-22T01:13:28;100816.72;;;26.89;42.86
50852;BME280;43953;45.508;-122.806;2023-07-22T01:13:59;100825.81;;;26.90;43.15
50852;BME280;43953;45.508;-122.806;2023-07-22T01:14:40;100824.69;;;26.91;43.78
50852;BME280;43953;45.508;-122.806;2023-07-22T01:15:12;100830.72;;;26.93;43.92
50852;BME280;43953;45.508;-122.806;2023-07-22T01:15:43;100828.47;;;26.95;43.39
50852;BME280;43953;45.508;-122.806;2023-07-22T01:16:16;100822.59;;;26.96;43.19
50852;BME280;43953;45.508;-122.806;2023-07-22T01:16:48;100830.59;;;26.98;43.50
50852;BME280;43953;45.508;-122.806;2023-07-22T01:17:21;100826.69;;;26.99;43.14
50852;BME280;43953;45.508;-122.806;2023-07-22T01:17:53;100822.31;;;26.98;43.29
50852;BME280;43953;45.508;-122.806;2023-07-22T01:18:26;100828.31;;;27.00;43.49
50852;BME280;43953;45.508;-122.806;2023-07-22T01:18:58;100835.50;;;27.01;43.30
50852;BME280;43953;45.508;-122.806;2023-07-22T01:19:30;100825.25;;;27.02;43.42
50852;BME280;43953;45.508;-122.806;2023-07-22T01:20:02;100823.63;;;27.00;43.33
50852;BME280;43953;45.508;-122.806;2023-07-22T01:20:35;100826.06;;;27.02;43.48
50852;BME280;43953;45.508;-122.806;2023-07-22T01:21:08;100831.59;;;27.02;43.22
50852;BME280;43953;45.508;-122.806;2023-07-22T01:21:41;100828.81;;;27.02;43.56
50852;BME280;43953;45.508;-122.806;2023-07-22T01:22:14;100826.88;;;27.03;43.61
50852;BME280;43953;45.508;-122.806;2023-07-22T01:22:54;100829.31;;;27.04;43.43
50852;BME280;43953;45.508;-122.806;2023-07-22T01:23:26;100821.03;;;27.04;43.07
50852;BME280;43953;45.508;-122.806;2023-07-22T01:23:57;100828.19;;;27.05;43.23
50852;BME280;43953;45.508;-122.806;2023-07-22T01:24:30;100818.75;;;27.06;43.01
50852;BME280;43953;45.508;-122.806;2023-07-22T01:25:02;100827.03;;;27.06;43.26
50852;BME280;43953;45.508;-122.806;2023-07-22T01:25:34;100822.34;;;27.07;43.30
50852;BME280;43953;45.508;-122.806;2023-07-22T01:26:06;100828.69;;;27.07;43.11
50852;BME280;43953;45.508;-122.806;2023-07-22T01:26:38;100819.25;;;27.08;43.28
50852;BME280;43953;45.508;-122.806;2023-07-22T01:27:12;100824.78;;;27.08;43.35
50852;BME280;43953;45.508;-122.806;2023-07-22T01:27:45;100815.19;;;27.06;43.35
50852;BME280;43953;45.508;-122.806;2023-07-22T01:28:17;100825.28;;;27.10;43.34
50852;BME280;43953;45.508;-122.806;2023-07-22T01:28:48;100817.00;;;27.10;43.08
50852;BME280;43953;45.508;-122.806;2023-07-22T01:29:22;100817.81;;;27.11;43.50
50852;BME280;43953;45.508;-122.806;2023-07-22T01:29:53;100816.66;;;27.12;43.12
50852;BME280;43953;45.508;-122.806;2023-07-22T01:30:25;100821.09;;;27.13;43.27
50852;BME280;43953;45.508;-122.806;2023-07-22T01:30:58;100817.97;;;27.14;43.25
50852;BME280;43953;45.508;-122.806;2023-07-22T01:31:30;100826.00;;;27.16;43.18
50852;BME280;43953;45.508;-122.806;2023-07-22T01:32:02;100819.66;;;27.15;43.31
50852;BME280;43953;45.508;-122.806;2023-07-22T01:32:34;100816.91;;;27.15;43.04
50852;BME280;43953;45.508;-122.806;2023-07-22T01:33:05;100817.38;;;27.17;42.90
50852;BME280;43953;45.508;-122.806;2023-07-22T01:33:37;100824.56;;;27.18;43.27
50852;BME280;43953;45.508;-122.806;2023-07-22T01:34:09;100819.03;;;27.18;43.15
50852;BME280;43953;45.508;-122.806;2023-07-22T01:34:40;100819.03;;;27.18;43.41
50852;BME280;43953;45.508;-122.806;2023-07-22T01:35:13;100815.13;;;27.19;43.23
50852;BME280;43953;45.508;-122.806;2023-07-22T01:35:44;100823.91;;;27.21;43.45
50852;BME280;43953;45.508;-122.806;2023-07-22T01:36:16;100823.06;;;27.21;43.58
50852;BME280;43953;45.508;-122.806;2023-07-22T01:36:48;100821.16;;;27.21;42.93
50852;BME280;43953;45.508;-122.806;2023-07-22T01:37:21;100828.31;;;27.22;43.68
50852;BME280;43953;45.508;-122.806;2023-07-22T01:37:52;100820.81;;;27.23;43.74
50852;BME280;43953;45.508;-122.806;2023-07-22T01:38:24;100824.41;;;27.23;43.48
50852;BME280;43953;45.508;-122.806;2023-07-22T01:38:56;100824.41;;;27.23;43.30
50852;BME280;43953;45.508;-122.806;2023-07-22T01:39:27;100825.72;;;27.26;43.08
50852;BME280;43953;45.508;-122.806;2023-07-22T01:40:00;100824.91;;;27.26;43.50
50852;BME280;43953;45.508;-122.806;2023-07-22T01:40:31;100821.00;;;27.27;43.26
50852;BME280;43953;45.508;-122.806;2023-07-22T01:41:03;100822.63;;;27.28;43.36
50852;BME280;43953;45.508;-122.806;2023-07-22T01:41:35;100825.41;;;27.28;43.35
50852;BME280;43953;45.508;-122.806;2023-07-22T01:42:06;100820.34;;;27.30;43.16
50852;BME280;43953;45.508;-122.806;2023-07-22T01:42:42;100825.88;;;27.30;43.20
50852;BME280;43953;45.508;-122.806;2023-07-22T01:43:14;100814.00;;;27.29;43.23
50852;BME280;43953;45.508;-122.806;2023-07-22T01:43:45;100818.44;;;27.30;43.27
50852;BME280;43953;45.508;-122.806;2023-07-22T01:44:17;100816.47;;;27.31;43.04
50852;BME280;43953;45.508;-122.806;2023-07-22T01:44:49;100821.66;;;27.32;43.28
50852;BME280;43953;45.508;-122.806;2023-07-22T01:45:20;100812.25;;;27.33;43.66
50852;BME280;43953;45.508;-122.806;2023-07-22T01:45:52;100818.59;;;27.34;43.49
50852;BME280;43953;45.508;-122.806;2023-07-22T01:46:24;100817.78;;;27.33;43.14
50852;BME280;43953;45.508;-122.806;2023-07-22T01:46:56;100811.91;;;27.35;43.49
50852;BME280;43953;45.508;-122.806;2023-07-22T01:47:28;100821.03;;;27.35;43.43
50852;BME280;43953;45.508;-122.806;2023-07-22T01:48:00;100817.16;;;27.36;43.55
50852;BME280;43953;45.508;-122.806;2023-07-22T01:48:32;100819.06;;;27.36;43.29
50852;BME280;43953;45.508;-122.806;2023-07-22T01:49:06;100815.19;;;27.37;43.27
50852;BME280;43953;45.508;-122.806;2023-07-22T01:49:41;100816.81;;;27.38;43.40
50852;BME280;43953;45.508;-122.806;2023-07-22T01:50:12;100823.97;;;27.39;43.42
50852;BME280;43953;45.508;-122.806;2023-07-22T01:50:44;100815.66;;;27.39;43.42
50852;BME280;43953;45.508;-122.806;2023-07-22T01:51:16;100817.31;;;27.40;43.26
50852;BME280;43953;45.508;-122.806;2023-07-22T01:51:48;100821.69;;;27.41;43.73
50852;BME280;43953;45.508;-122.806;2023-07-22T01:52:19;100815.38;;;27.40;43.38
50852;BME280;43953;45.508;-122.806;2023-07-22T01:52:51;100812.28;;;27.42;43.40
50852;BME280;43953;45.508;-122.806;2023-07-22T01:53:23;100813.09;;;27.42;43.51
50852;BME280;43953;45.508;-122.806;2023-07-22T01:53:54;100821.06;;;27.44;43.24
50852;BME280;43953;45.508;-122.806;2023-07-22T01:54:28;100821.88;;;27.44;43.52
50852;BME280;43953;45.508;-122.806;2023-07-22T01:54:59;100811.66;;;27.45;43.05
50852;BME280;43953;45.508;-122.806;2023-07-22T01:55:31;100818.00;;;27.45;43.22
50852;BME280;43953;45.508;-122.806;2023-07-22T01:56:03;100814.88;;;27.47;43.10
50852;BME280;43953;45.508;-122.806;2023-07-22T01:56:36;100822.06;;;27.48;43.47
50852;BME280;43953;45.508;-122.806;2023-07-22T01:57:08;100816.53;;;27.48;42.98
50852;BME280;43953;45.508;-122.806;2023-07-22T01:57:41;100813.78;;;27.48;43.09
50852;BME280;43953;45.508;-122.806;2023-07-22T01:58:13;100817.00;;;27.50;43.43
50852;BME280;43953;45.508;-122.806;2023-07-22T01:58:46;100815.38;;;27.49;43.31
50852;BME280;43953;45.508;-122.806;2023-07-22T01:59:17;100809.53;;;27.51;43.02
50852;BME280;43953;45.508;-122.806;2023-07-22T01:59:49;100813.94;;;27.52;43.15
50852;BME280;43953;45.508;-122.806;2023-07-22T02:00:21;100814.75;;;27.52;43.00
50852;BME280;43953;45.508;-122.806;2023-07-22T02:00:52;100816.69;;;27.52;43.27
50852;BME280;43953;45.508;-122.806;2023-07-22T02:01:24;100813.59;;;27.53;43.29
50852;BME280;43953;45.508;-122.806;2023-07-22T02:01:56;100814.41;;;27.54;43.10
50852;BME280;43953;45.508;-122.806;2023-07-22T02:02:27;100808.88;;;27.54;42.76
50852;BME280;43953;45.508;-122.806;2023-07-22T02:02:59;100814.09;;;27.55;43.12
50852;BME280;43953;45.508;-122.806;2023-07-22T02:03:31;100813.28;;;27.55;43.08
50852;BME280;43953;45.508;-122.806;2023-07-22T02:04:03;100812.16;;;27.56;43.06
50852;BME280;43953;45.508;-122.806;2023-07-22T02:04:35;100818.50;;;27.56;43.11
50852;BME280;43953;45.508;-122.806;2023-07-22T02:05:07;100812.97;;;27.56;42.94
50852;BME280;43953;45.508;-122.806;2023-07-22T02:05:38;100813.81;;;27.57;42.89
50852;BME280;43953;45.508;-122.806;2023-07-22T02:06:10;100813.47;;;27.58;43.10
50852;BME280;43953;45.508;-122.806;2023-07-22T02:06:42;100814.28;;;27.59;42.80
50852;BME280;43953;45.508;-122.806;2023-07-22T02:07:13;100806.78;;;27.59;42.80
50852;BME280;43953;45.508;-122.806;2023-07-22T02:07:46;100815.09;;;27.59;43.02
50852;BME280;43953;45.508;-122.806;2023-07-22T02:08:17;100809.25;;;27.61;42.86
50852;BME280;43953;45.508;-122.806;2023-07-22T02:08:49;100812.00;;;27.61;43.10
50852;BME280;43953;45.508;-122.806;2023-07-22T02:09:21;100808.09;;;27.62;43.22
50852;BME280;43953;45.508;-122.806;2023-07-22T02:09:53;100808.91;;;27.62;43.14
50852;BME280;43953;45.508;-122.806;2023-07-22T02:10:25;100806.97;;;27.63;43.19
50852;BME280;43953;45.508;-122.806;2023-07-22T02:11:04;100813.31;;;27.63;43.00
50852;BME280;43953;45.508;-122.806;2023-07-22T02:11:36;100812.19;;;27.64;43.17
50852;BME280;43953;45.508;-122.806;2023-07-22T02:12:08;100811.03;;;27.65;43.24
50852;BME280;43953;45.508;-122.806;2023-07-22T02:12:40;100811.53;;;27.67;42.90
50852;BME280;43953;45.508;-122.806;2023-07-22T02:13:11;100807.16;;;27.66;43.06
50852;BME280;43953;45.508;-122.806;2023-07-22T02:13:43;100813.50;;;27.67;42.79
50852;BME280;43953;45.508;-122.806;2023-07-22T02:14:15;100808.75;;;27.67;42.87
50852;BME280;43953;45.508;-122.806;2023-07-22T02:14:46;100810.38;;;27.68;42.91
50852;BME280;43953;45.508;-122.806;2023-07-22T02:15:18;100814.00;;;27.69;43.09
50852;BME280;43953;45.508;-122.806;2023-07-22T02:15:50;100812.84;;;27.70;43.29
50852;BME280;43953;45.508;-122.806;2023-07-22T02:16:22;100808.13;;;27.71;42.86
50852;BME280;43953;45.508;-122.806;2023-07-22T02:16:53;100808.13;;;27.71;42.82
50852;BME280;43953;45.508;-122.806;2023-07-22T02:17:25;100812.53;;;27.72;42.99
50852;BME280;43953;45.508;-122.806;2023-07-22T02:17:57;100816.13;;;27.72;43.04
50852;BME280;43953;45.508;-122.806;2023-07-22T02:18:29;100816.13;;;27.72;42.81
50852;BME280;43953;45.508;-122.806;2023-07-22T02:19:01;100812.19;;;27.73;42.93
50852;BME280;43953;45.508;-122.806;2023-07-22T02:19:33;100806.66;;;27.73;42.86
50852;BME280;43953;45.508;-122.806;2023-07-22T02:20:05;100803.91;;;27.73;43.02
50852;BME280;43953;45.508;-122.806;2023-07-22T02:20:37;100811.88;;;27.75;42.95
50852;BME280;43953;45.508;-122.806;2023-07-22T02:21:10;100814.66;;;27.75;42.93
50852;BME280;43953;45.508;-122.806;2023-07-22T02:21:41;100811.56;;;27.76;42.71
50852;BME280;43953;45.508;-122.806;2023-07-22T02:22:13;100804.41;;;27.75;42.91
50852;BME280;43953;45.508;-122.806;2023-07-22T02:22:45;100814.00;;;27.78;43.05
50852;BME280;43953;45.508;-122.806;2023-07-22T02:23:17;100807.63;;;27.77;42.63
50852;BME280;43953;45.508;-122.806;2023-07-22T02:23:49;100805.41;;;27.79;42.99
50852;BME280;43953;45.508;-122.806;2023-07-22T02:24:21;100810.94;;;27.79;42.94
50852;BME280;43953;45.508;-122.806;2023-07-22T02:24:53;100811.75;;;27.80;42.94
50852;BME280;43953;45.508;-122.806;2023-07-22T02:25:24;100807.03;;;27.80;42.94
50852;BME280;43953;45.508;-122.806;2023-07-22T02:25:56;100806.72;;;27.82;42.95
50852;BME280;43953;45.508;-122.806;2023-07-22T02:26:28;100808.66;;;27.81;42.59
50852;BME280;43953;45.508;-122.806;2023-07-22T02:26:59;100810.28;;;27.82;42.73
50852;BME280;43953;45.508;-122.806;2023-07-22T02:27:31;100819.41;;;27.83;42.57
50852;BME280;43953;45.508;-122.806;2023-07-22T02:28:03;100812.75;;;27.84;42.97
50852;BME280;43953;45.508;-122.806;2023-07-22T02:28:35;100814.38;;;27.85;42.91
50852;BME280;43953;45.508;-122.806;2023-07-22T02:29:06;100810.78;;;27.84;42.76
50852;BME280;43953;45.508;-122.806;2023-07-22T02:29:39;100808.84;;;27.85;42.58
50852;BME280;43953;45.508;-122.806;2023-07-22T02:30:10;100815.19;;;27.85;42.78
50852;BME280;43953;45.508;-122.806;2023-07-22T02:30:42;100810.44;;;27.86;42.28
50852;BME280;43953;45.508;-122.806;2023-07-22T02:31:14;100812.09;;;27.87;42.48
50852;BME280;43953;45.508;-122.806;2023-07-22T02:31:45;100812.91;;;27.87;42.31
50852;BME280;43953;45.508;-122.806;2023-07-22T02:32:20;100807.03;;;27.89;42.50
50852;BME280;43953;45.508;-122.806;2023-07-22T02:32:51;100812.56;;;27.89;42.46
50852;BME280;43953;45.508;-122.806;2023-07-22T02:33:23;100809.00;;;27.88;42.45
50852;BME280;43953;45.508;-122.806;2023-07-22T02:33:55;100807.88;;;27.89;42.40
50852;BME280;43953;45.508;-122.806;2023-07-22T02:34:27;100802.66;;;27.88;42.84
50852;BME280;43953;45.508;-122.806;2023-07-22T02:34:59;100805.91;;;27.90;42.56
50852;BME280;43953;45.508;-122.806;2023-07-22T02:35:31;100803.97;;;27.90;42.67
50852;BME280;43953;45.508;-122.806;2023-07-22T02:36:02;100811.13;;;27.92;42.53
50852;BME280;43953;45.508;-122.806;2023-07-22T02:36:34;100809.16;;;27.92;42.77
50852;BME280;43953;45.508;-122.806;2023-07-22T02:37:06;100807.22;;;27.93;42.70
50852;BME280;43953;45.508;-122.806;2023-07-22T02:37:38;100809.16;;;27.92;42.56
50852;BME280;43953;45.508;-122.806;2023-07-22T02:38:10;100806.06;;;27.94;42.48
50852;BME280;43953;45.508;-122.806;2023-07-22T02:38:42;100806.88;;;27.94;42.70
50852;BME280;43953;45.508;-122.806;2023-07-22T02:39:14;100811.28;;;27.95;42.73
50852;BME280;43953;45.508;-122.806;2023-07-22T02:39:45;100809.34;;;27.96;42.61
50852;BME280;43953;45.508;-122.806;2023-07-22T02:40:17;100810.97;;;27.97;42.50
50852;BME280;43953;45.508;-122.806;2023-07-22T02:40:49;100808.19;;;27.97;42.66
50852;BME280;43953;45.508;-122.806;2023-07-22T02:41:20;100810.16;;;27.96;42.38